sensor_id;sensor_type;location;lat;lon;timestamp;P1;durP1;ratioP1;P2;durP2;ratioP2
31262;SDS011;17892;52.080;9.006;2024-02-21T00:00:52;17.63;;;7.53;;
31262;SDS011;17892;52.080;9.006;2024-02-21T00:03:18;18.05;;;7.32;;
31262;SDS011;17892;52.080;9.006;2024-02-21T00:05:44;17.45;;;7.28;;
31262;SDS011;17892;52.080;9.006;2024-02-21T00:08:10;13.73;;;5.55;;
31262;SDS011;17892;52.080;9.006;2024-02-21T00:10:35;18.52;;;7.10;;
31262;SDS011;17892;52.080;9.006;2024-02-21T00:13:01;15.13;;;6.00;;
31262;SDS011;17892;52.080;9.006;2024-02-21T00:15:27;15.30;;;6.85;;
31262;SDS011;17892;52.080;9.006;2024-02-21T00:17:53;12.95;;;6.40;;
31262;SDS011;17892;52.080;9.006;2024-02-21T00:20:18;14.38;;;6.45;;
31262;SDS011;17892;52.080;9.006;2024-02-21T00:22:45;15.20;;;7.10;;
31262;SDS011;17892;52.080;9.006;2024-02-21T00:25:10;14.13;;;6.28;;
31262;SDS011;17892;52.080;9.006;2024-02-21T00:27:36;14.27;;;6.00;;
31262;SDS011;17892;52.080;9.006;2024-02-21T00:30:02;16.98;;;6.55;;
31262;SDS011;17892;52.080;9.006;2024-02-21T00:32:28;18.85;;;7.32;;
31262;SDS011;17892;52.080;9.006;2024-02-21T00:34:54;18.00;;;6.60;;
31262;SDS011;17892;52.080;9.006;2024-02-21T00:37:20;13.05;;;6.57;;
31262;SDS011;17892;52.080;9.006;2024-02-21T00:39:45;13.68;;;5.95;;
31262;SDS011;17892;52.080;9.006;2024-02-21T00:42:11;16.90;;;7.30;;
31262;SDS011;17892;52.080;9.006;2024-02-21T00:44:37;15.32;;;6.28;;
31262;SDS011;17892;52.080;9.006;2024-02-21T00:47:02;18.38;;;7.07;;
31262;SDS011;17892;52.080;9.006;2024-02-21T00:49:28;16.95;;;7.03;;
31262;SDS011;17892;52.080;9.006;2024-02-21T00:51:54;13.82;;;6.57;;
31262;SDS011;17892;52.080;9.006;2024-02-21T00:54:19;12.68;;;6.65;;
31262;SDS011;17892;52.080;9.006;2024-02-21T00:56:45;13.32;;;6.40;;
31262;SDS011;17892;52.080;9.006;2024-02-21T00:59:12;18.05;;;7.15;;
31262;SDS011;17892;52.080;9.006;2024-02-21T01:01:37;13.18;;;7.05;;
31262;SDS011;17892;52.080;9.006;2024-02-21T01:04:03;17.33;;;7.72;;
31262;SDS011;17892;52.080;9.006;2024-02-21T01:06:29;13.18;;;6.35;;
31262;SDS011;17892;52.080;9.006;2024-02-21T01:08:54;14.63;;;6.32;;
31262;SDS011;17892;52.080;9.006;2024-02-21T01:11:20;15.23;;;8.40;;
31262;SDS011;17892;52.080;9.006;2024-02-21T01:13:46;16.45;;;7.80;;
31262;SDS011;17892;52.080;9.006;2024-02-21T01:16:11;12.60;;;6.85;;
31262;SDS011;17892;52.080;9.006;2024-02-21T01:18:37;14.15;;;6.88;;
31262;SDS011;17892;52.080;9.006;2024-02-21T01:21:04;15.88;;;7.78;;
31262;SDS011;17892;52.080;9.006;2024-02-21T01:23:32;12.18;;;6.07;;
31262;SDS011;17892;52.080;9.006;2024-02-21T01:26:02;12.65;;;6.88;;
31262;SDS011;17892;52.080;9.006;2024-02-21T01:28:28;11.25;;;5.93;;
31262;SDS011;17892;52.080;9.006;2024-02-21T01:30:55;12.32;;;6.43;;
31262;SDS011;17892;52.080;9.006;2024-02-21T01:33:21;16.45;;;7.50;;
31262;SDS011;17892;52.080;9.006;2024-02-21T01:35:47;13.82;;;6.95;;
31262;SDS011;17892;52.080;9.006;2024-02-21T01:38:14;15.20;;;8.00;;
31262;SDS011;17892;52.080;9.006;2024-02-21T01:40:39;16.38;;;7.55;;
31262;SDS011;17892;52.080;9.006;2024-02-21T01:43:14;15.85;;;8.10;;
31262;SDS011;17892;52.080;9.006;2024-02-21T01:45:42;18.35;;;8.63;;
31262;SDS011;17892;52.080;9.006;2024-02-21T01:48:09;16.00;;;7.93;;
31262;SDS011;17892;52.080;9.006;2024-02-21T01:50:35;15.30;;;7.72;;
31262;SDS011;17892;52.080;9.006;2024-02-21T01:53:01;16.10;;;7.72;;
31262;SDS011;17892;52.080;9.006;2024-02-21T01:55:27;15.30;;;8.13;;
31262;SDS011;17892;52.080;9.006;2024-02-21T01:57:53;17.08;;;8.23;;
31262;SDS011;17892;52.080;9.006;2024-02-21T02:00:19;19.02;;;8.68;;
31262;SDS011;17892;52.080;9.006;2024-02-21T02:02:45;15.32;;;8.15;;
31262;SDS011;17892;52.080;9.006;2024-02-21T02:05:11;16.70;;;8.00;;
31262;SDS011;17892;52.080;9.006;2024-02-21T02:07:37;17.52;;;6.95;;
31262;SDS011;17892;52.080;9.006;2024-02-21T02:10:02;14.02;;;6.82;;
31262;SDS011;17892;52.080;9.006;2024-02-21T02:12:28;14.50;;;7.25;;
31262;SDS011;17892;52.080;9.006;2024-02-21T02:15:00;13.20;;;6.57;;
31262;SDS011;17892;52.080;9.006;2024-02-21T02:17:30;15.70;;;7.28;;
31262;SDS011;17892;52.080;9.006;2024-02-21T02:19:56;14.77;;;6.75;;
31262;SDS011;17892;52.080;9.006;2024-02-21T02:22:22;15.15;;;7.05;;
31262;SDS011;17892;52.080;9.006;2024-02-21T02:24:54;14.30;;;6.85;;
31262;SDS011;17892;52.080;9.006;2024-02-21T02:27:20;14.57;;;7.65;;
31262;SDS011;17892;52.080;9.006;2024-02-21T02:29:47;16.27;;;7.38;;
31262;SDS011;17892;52.080;9.006;2024-02-21T02:32:13;15.07;;;7.03;;
31262;SDS011;17892;52.080;9.006;2024-02-21T02:34:39;19.45;;;7.97;;
31262;SDS011;17892;52.080;9.006;2024-02-21T02:37:05;13.50;;;6.38;;
31262;SDS011;17892;52.080;9.006;2024-02-21T02:39:30;15.50;;;6.43;;
31262;SDS011;17892;52.080;9.006;2024-02-21T02:41:56;14.10;;;6.88;;
31262;SDS011;17892;52.080;9.006;2024-02-21T02:44:22;14.60;;;6.50;;
31262;SDS011;17892;52.080;9.006;2024-02-21T02:46:47;13.38;;;6.65;;
31262;SDS011;17892;52.080;9.006;2024-02-21T02:49:13;15.05;;;6.75;;
31262;SDS011;17892;52.080;9.006;2024-02-21T02:51:42;14.05;;;6.60;;
31262;SDS011;17892;52.080;9.006;2024-02-21T02:54:09;14.40;;;6.30;;
31262;SDS011;17892;52.080;9.006;2024-02-21T02:56:35;21.40;;;8.40;;
31262;SDS011;17892;52.080;9.006;2024-02-21T02:59:00;15.27;;;7.72;;
31262;SDS011;17892;52.080;9.006;2024-02-21T03:01:26;14.70;;;7.82;;
31262;SDS011;17892;52.080;9.006;2024-02-21T03:03:52;15.63;;;7.22;;
31262;SDS011;17892;52.080;9.006;2024-02-21T03:06:18;18.15;;;9.00;;
31262;SDS011;17892;52.080;9.006;2024-02-21T03:08:44;14.88;;;7.80;;
31262;SDS011;17892;52.080;9.006;2024-02-21T03:11:10;13.70;;;7.10;;
31262;SDS011;17892;52.080;9.006;2024-02-21T03:13:36;13.45;;;6.55;;
31262;SDS011;17892;52.080;9.006;2024-02-21T03:16:02;15.30;;;7.78;;
31262;SDS011;17892;52.080;9.006;2024-02-21T03:18:28;14.60;;;7.88;;
31262;SDS011;17892;52.080;9.006;2024-02-21T03:20:53;14.55;;;7.20;;
31262;SDS011;17892;52.080;9.006;2024-02-21T03:23:19;13.65;;;7.07;;
31262;SDS011;17892;52.080;9.006;2024-02-21T03:25:45;16.85;;;8.70;;
31262;SDS011;17892;52.080;9.006;2024-02-21T03:28:10;15.10;;;8.30;;
31262;SDS011;17892;52.080;9.006;2024-02-21T03:30:36;12.52;;;6.55;;
31262;SDS011;17892;52.080;9.006;2024-02-21T03:33:02;14.35;;;6.95;;
31262;SDS011;17892;52.080;9.006;2024-02-21T03:35:28;13.88;;;6.88;;
31262;SDS011;17892;52.080;9.006;2024-02-21T03:37:54;12.00;;;6.38;;
31262;SDS011;17892;52.080;9.006;2024-02-21T03:40:19;17.15;;;7.93;;
31262;SDS011;17892;52.080;9.006;2024-02-21T03:42:45;23.70;;;8.50;;
31262;SDS011;17892;52.080;9.006;2024-02-21T03:45:10;13.63;;;7.15;;
31262;SDS011;17892;52.080;9.006;2024-02-21T03:47:36;13.95;;;6.57;;
31262;SDS011;17892;52.080;9.006;2024-02-21T03:50:02;13.40;;;6.95;;
31262;SDS011;17892;52.080;9.006;2024-02-21T03:52:27;16.52;;;6.93;;
31262;SDS011;17892;52.080;9.006;2024-02-21T03:54:53;13.77;;;7.03;;
31262;SDS011;17892;52.080;9.006;2024-02-21T03:57:20;14.23;;;6.93;;
31262;SDS011;17892;52.080;9.006;2024-02-21T03:59:46;12.82;;;6.50;;
31262;SDS011;17892;52.080;9.006;2024-02-21T04:02:14;15.95;;;7.40;;
31262;SDS011;17892;52.080;9.006;2024-02-21T04:04:42;15.50;;;6.70;;
31262;SDS011;17892;52.080;9.006;2024-02-21T04:07:12;12.15;;;6.72;;
31262;SDS011;17892;52.080;9.006;2024-02-21T04:09:38;14.98;;;7.03;;
31262;SDS011;17892;52.080;9.006;2024-02-21T04:12:05;15.35;;;7.05;;
31262;SDS011;17892;52.080;9.006;2024-02-21T04:14:31;12.85;;;6.85;;
31262;SDS011;17892;52.080;9.006;2024-02-21T04:16:57;14.52;;;6.63;;
31262;SDS011;17892;52.080;9.006;2024-02-21T04:19:22;14.18;;;7.20;;
31262;SDS011;17892;52.080;9.006;2024-02-21T04:21:48;17.05;;;7.65;;
31262;SDS011;17892;52.080;9.006;2024-02-21T04:24:14;14.52;;;7.45;;
31262;SDS011;17892;52.080;9.006;2024-02-21T04:26:39;14.75;;;7.22;;
31262;SDS011;17892;52.080;9.006;2024-02-21T04:29:05;12.57;;;7.35;;
31262;SDS011;17892;52.080;9.006;2024-02-21T04:31:34;16.50;;;7.22;;
31262;SDS011;17892;52.080;9.006;2024-02-21T04:33:59;13.35;;;6.75;;
31262;SDS011;17892;52.080;9.006;2024-02-21T04:36:25;14.57;;;6.80;;
31262;SDS011;17892;52.080;9.006;2024-02-21T04:38:51;13.48;;;6.72;;
31262;SDS011;17892;52.080;9.006;2024-02-21T04:41:16;13.40;;;6.80;;
31262;SDS011;17892;52.080;9.006;2024-02-21T04:43:42;11.88;;;6.35;;
31262;SDS011;17892;52.080;9.006;2024-02-21T04:46:08;14.73;;;7.30;;
31262;SDS011;17892;52.080;9.006;2024-02-21T04:48:34;16.13;;;7.22;;
31262;SDS011;17892;52.080;9.006;2024-02-21T04:51:00;12.27;;;6.47;;
31262;SDS011;17892;52.080;9.006;2024-02-21T04:53:26;13.63;;;6.45;;
31262;SDS011;17892;52.080;9.006;2024-02-21T04:55:51;13.68;;;5.93;;
31262;SDS011;17892;52.080;9.006;2024-02-21T04:58:17;10.73;;;5.95;;
31262;SDS011;17892;52.080;9.006;2024-02-21T05:00:43;15.02;;;6.13;;
31262;SDS011;17892;52.080;9.006;2024-02-21T05:03:08;13.80;;;7.22;;
31262;SDS011;17892;52.080;9.006;2024-02-21T05:05:34;13.85;;;6.85;;
31262;SDS011;17892;52.080;9.006;2024-02-21T05:08:00;14.18;;;6.63;;
31262;SDS011;17892;52.080;9.006;2024-02-21T05:10:26;14.40;;;6.20;;
31262;SDS011;17892;52.080;9.006;2024-02-21T05:12:52;13.32;;;7.57;;
31262;SDS011;17892;52.080;9.006;2024-02-21T05:15:17;14.10;;;7.22;;
31262;SDS011;17892;52.080;9.006;2024-02-21T05:17:43;15.20;;;6.25;;
31262;SDS011;17892;52.080;9.006;2024-02-21T05:20:09;15.82;;;6.90;;
31262;SDS011;17892;52.080;9.006;2024-02-21T05:22:35;17.00;;;7.95;;
31262;SDS011;17892;52.080;9.006;2024-02-21T05:25:01;14.13;;;6.88;;
31262;SDS011;17892;52.080;9.006;2024-02-21T05:27:27;14.07;;;6.35;;
31262;SDS011;17892;52.080;9.006;2024-02-21T05:29:53;13.15;;;7.13;;
31262;SDS011;17892;52.080;9.006;2024-02-21T05:32:19;17.10;;;8.15;;
31262;SDS011;17892;52.080;9.006;2024-02-21T05:34:48;15.32;;;7.03;;
31262;SDS011;17892;52.080;9.006;2024-02-21T05:37:14;14.57;;;7.60;;
31262;SDS011;17892;52.080;9.006;2024-02-21T05:39:40;15.05;;;7.22;;
31262;SDS011;17892;52.080;9.006;2024-02-21T05:42:06;20.48;;;8.65;;
31262;SDS011;17892;52.080;9.006;2024-02-21T05:44:32;16.35;;;7.32;;
31262;SDS011;17892;52.080;9.006;2024-02-21T05:46:57;15.55;;;6.88;;
31262;SDS011;17892;52.080;9.006;2024-02-21T05:49:23;15.95;;;8.00;;
31262;SDS011;17892;52.080;9.006;2024-02-21T05:51:49;16.23;;;8.00;;
31262;SDS011;17892;52.080;9.006;2024-02-21T05:54:14;13.00;;;6.80;;
31262;SDS011;17892;52.080;9.006;2024-02-21T05:56:43;12.80;;;6.95;;
31262;SDS011;17892;52.080;9.006;2024-02-21T05:59:10;12.70;;;6.50;;
31262;SDS011;17892;52.080;9.006;2024-02-21T06:01:36;12.75;;;5.90;;
31262;SDS011;17892;52.080;9.006;2024-02-21T06:04:02;12.38;;;6.43;;
31262;SDS011;17892;52.080;9.006;2024-02-21T06:06:27;13.95;;;7.00;;
31262;SDS011;17892;52.080;9.006;2024-02-21T06:08:53;13.65;;;6.75;;
31262;SDS011;17892;52.080;9.006;2024-02-21T06:11:19;12.80;;;6.25;;
31262;SDS011;17892;52.080;9.006;2024-02-21T06:13:44;11.55;;;6.25;;
31262;SDS011;17892;52.080;9.006;2024-02-21T06:16:10;16.95;;;7.22;;
31262;SDS011;17892;52.080;9.006;2024-02-21T06:18:36;15.00;;;7.55;;
31262;SDS011;17892;52.080;9.006;2024-02-21T06:21:02;11.50;;;5.82;;
31262;SDS011;17892;52.080;9.006;2024-02-21T06:23:28;16.83;;;7.93;;
31262;SDS011;17892;52.080;9.006;2024-02-21T06:25:54;14.93;;;5.85;;
31262;SDS011;17892;52.080;9.006;2024-02-21T06:28:20;13.32;;;7.25;;
31262;SDS011;17892;52.080;9.006;2024-02-21T06:30:45;12.65;;;6.45;;
31262;SDS011;17892;52.080;9.006;2024-02-21T06:33:11;15.95;;;7.45;;
31262;SDS011;17892;52.080;9.006;2024-02-21T06:35:37;10.85;;;5.78;;
31262;SDS011;17892;52.080;9.006;2024-02-21T06:38:05;13.05;;;5.63;;
31262;SDS011;17892;52.080;9.006;2024-02-21T06:40:32;11.75;;;6.60;;
31262;SDS011;17892;52.080;9.006;2024-02-21T06:43:03;14.90;;;7.15;;
31262;SDS011;17892;52.080;9.006;2024-02-21T06:45:29;14.50;;;7.18;;
31262;SDS011;17892;52.080;9.006;2024-02-21T06:47:55;15.52;;;6.63;;
31262;SDS011;17892;52.080;9.006;2024-02-21T06:50:21;12.38;;;6.47;;
31262;SDS011;17892;52.080;9.006;2024-02-21T06:52:46;11.13;;;6.15;;
31262;SDS011;17892;52.080;9.006;2024-02-21T06:55:12;14.93;;;6.78;;
31262;SDS011;17892;52.080;9.006;2024-02-21T06:57:38;14.82;;;6.07;;
31262;SDS011;17892;52.080;9.006;2024-02-21T07:00:03;15.43;;;6.00;;
31262;SDS011;17892;52.080;9.006;2024-02-21T07:02:33;14.15;;;6.63;;
31262;SDS011;17892;52.080;9.006;2024-02-21T07:04:59;10.98;;;6.20;;
31262;SDS011;17892;52.080;9.006;2024-02-21T07:07:25;11.93;;;4.95;;
31262;SDS011;17892;52.080;9.006;2024-02-21T07:09:50;13.40;;;6.70;;
31262;SDS011;17892;52.080;9.006;2024-02-21T07:12:16;16.05;;;7.10;;
31262;SDS011;17892;52.080;9.006;2024-02-21T07:14:42;13.50;;;6.07;;
31262;SDS011;17892;52.080;9.006;2024-02-21T07:17:07;10.00;;;5.47;;
31262;SDS011;17892;52.080;9.006;2024-02-21T07:19:33;13.65;;;5.75;;
31262;SDS011;17892;52.080;9.006;2024-02-21T07:22:00;9.90;;;4.50;;
31262;SDS011;17892;52.080;9.006;2024-02-21T07:24:26;12.77;;;5.90;;
31262;SDS011;17892;52.080;9.006;2024-02-21T07:26:51;11.85;;;4.90;;
31262;SDS011;17892;52.080;9.006;2024-02-21T07:29:18;10.52;;;5.30;;
31262;SDS011;17892;52.080;9.006;2024-02-21T07:31:43;11.68;;;4.95;;
31262;SDS011;17892;52.080;9.006;2024-02-21T07:34:09;9.43;;;4.88;;
31262;SDS011;17892;52.080;9.006;2024-02-21T07:36:36;10.27;;;4.82;;
31262;SDS011;17892;52.080;9.006;2024-02-21T07:39:04;10.40;;;4.57;;
31262;SDS011;17892;52.080;9.006;2024-02-21T07:41:30;9.32;;;4.20;;
31262;SDS011;17892;52.080;9.006;2024-02-21T07:43:56;12.82;;;5.05;;
31262;SDS011;17892;52.080;9.006;2024-02-21T07:46:23;8.73;;;3.70;;
31262;SDS011;17892;52.080;9.006;2024-02-21T07:48:48;9.30;;;4.40;;
31262;SDS011;17892;52.080;9.006;2024-02-21T07:51:15;11.35;;;5.00;;
31262;SDS011;17892;52.080;9.006;2024-02-21T07:53:44;9.32;;;3.80;;
31262;SDS011;17892;52.080;9.006;2024-02-21T07:56:13;10.80;;;4.95;;
31262;SDS011;17892;52.080;9.006;2024-02-21T07:58:40;7.28;;;3.58;;
31262;SDS011;17892;52.080;9.006;2024-02-21T08:01:06;7.93;;;4.28;;
31262;SDS011;17892;52.080;9.006;2024-02-21T08:03:33;10.77;;;4.05;;
31262;SDS011;17892;52.080;9.006;2024-02-21T08:05:59;7.00;;;3.70;;
31262;SDS011;17892;52.080;9.006;2024-02-21T08:08:24;9.15;;;4.38;;
31262;SDS011;17892;52.080;9.006;2024-02-21T08:10:51;7.07;;;3.40;;
31262;SDS011;17892;52.080;9.006;2024-02-21T08:13:17;10.73;;;4.53;;
31262;SDS011;17892;52.080;9.006;2024-02-21T08:15:42;8.82;;;4.03;;
31262;SDS011;17892;52.080;9.006;2024-02-21T08:18:08;6.88;;;3.80;;
31262;SDS011;17892;52.080;9.006;2024-02-21T08:20:34;7.32;;;3.45;;
31262;SDS011;17892;52.080;9.006;2024-02-21T08:23:00;7.57;;;3.38;;
31262;SDS011;17892;52.080;9.006;2024-02-21T08:25:26;7.97;;;3.65;;
31262;SDS011;17892;52.080;9.006;2024-02-21T08:27:55;6.65;;;3.53;;
31262;SDS011;17892;52.080;9.006;2024-02-21T08:30:23;8.93;;;3.80;;
31262;SDS011;17892;52.080;9.006;2024-02-21T08:32:49;7.53;;;3.58;;
31262;SDS011;17892;52.080;9.006;2024-02-21T08:35:15;7.68;;;3.80;;
31262;SDS011;17892;52.080;9.006;2024-02-21T08:37:43;6.72;;;3.53;;
31262;SDS011;17892;52.080;9.006;2024-02-21T08:40:09;11.00;;;4.75;;
31262;SDS011;17892;52.080;9.006;2024-02-21T08:42:35;7.35;;;4.07;;
31262;SDS011;17892;52.080;9.006;2024-02-21T08:45:02;6.40;;;3.50;;
31262;SDS011;17892;52.080;9.006;2024-02-21T08:47:28;8.10;;;3.72;;
31262;SDS011;17892;52.080;9.006;2024-02-21T08:49:54;7.43;;;3.20;;
31262;SDS011;17892;52.080;9.006;2024-02-21T08:52:20;7.45;;;3.25;;
31262;SDS011;17892;52.080;9.006;2024-02-21T08:54:45;10.38;;;4.25;;
31262;SDS011;17892;52.080;9.006;2024-02-21T08:57:11;6.32;;;2.90;;
31262;SDS011;17892;52.080;9.006;2024-02-21T08:59:38;6.75;;;2.88;;
31262;SDS011;17892;52.080;9.006;2024-02-21T09:02:05;7.40;;;3.20;;
31262;SDS011;17892;52.080;9.006;2024-02-21T09:04:32;6.50;;;3.38;;
31262;SDS011;17892;52.080;9.006;2024-02-21T09:06:58;8.05;;;2.95;;
31262;SDS011;17892;52.080;9.006;2024-02-21T09:09:24;7.28;;;2.88;;
31262;SDS011;17892;52.080;9.006;2024-02-21T09:11:50;7.05;;;3.00;;
31262;SDS011;17892;52.080;9.006;2024-02-21T09:14:15;8.80;;;3.45;;
31262;SDS011;17892;52.080;9.006;2024-02-21T09:16:42;8.27;;;3.50;;
31262;SDS011;17892;52.080;9.006;2024-02-21T09:19:08;7.78;;;3.38;;
31262;SDS011;17892;52.080;9.006;2024-02-21T09:21:36;8.57;;;3.33;;
31262;SDS011;17892;52.080;9.006;2024-02-21T09:24:07;8.73;;;4.20;;
31262;SDS011;17892;52.080;9.006;2024-02-21T09:26:33;7.00;;;3.20;;
31262;SDS011;17892;52.080;9.006;2024-02-21T09:28:58;9.35;;;4.10;;
31262;SDS011;17892;52.080;9.006;2024-02-21T09:31:24;6.85;;;2.97;;
31262;SDS011;17892;52.080;9.006;2024-02-21T09:33:50;6.05;;;2.85;;
31262;SDS011;17892;52.080;9.006;2024-02-21T09:36:16;6.88;;;2.97;;
31262;SDS011;17892;52.080;9.006;2024-02-21T09:38:41;6.72;;;3.10;;
31262;SDS011;17892;52.080;9.006;2024-02-21T09:41:17;7.18;;;3.13;;
31262;SDS011;17892;52.080;9.006;2024-02-21T09:43:44;7.18;;;3.50;;
31262;SDS011;17892;52.080;9.006;2024-02-21T09:46:16;6.80;;;3.03;;
31262;SDS011;17892;52.080;9.006;2024-02-21T09:49:04;7.05;;;3.55;;
31262;SDS011;17892;52.080;9.006;2024-02-21T09:51:53;6.70;;;2.97;;
31262;SDS011;17892;52.080;9.006;2024-02-21T09:54:20;4.55;;;2.30;;
31262;SDS011;17892;52.080;9.006;2024-02-21T09:56:47;6.72;;;3.20;;
31262;SDS011;17892;52.080;9.006;2024-02-21T09:59:16;5.07;;;2.30;;
31262;SDS011;17892;52.080;9.006;2024-02-21T10:01:44;7.28;;;2.72;;
31262;SDS011;17892;52.080;9.006;2024-02-21T10:04:12;7.10;;;2.72;;
31262;SDS011;17892;52.080;9.006;2024-02-21T10:06:38;4.53;;;2.72;;
31262;SDS011;17892;52.080;9.006;2024-02-21T10:09:05;5.50;;;2.20;;
31262;SDS011;17892;52.080;9.006;2024-02-21T10:11:31;5.05;;;2.13;;
31262;SDS011;17892;52.080;9.006;2024-02-21T10:14:06;5.55;;;2.15;;
31262;SDS011;17892;52.080;9.006;2024-02-21T10:16:32;6.05;;;2.60;;
31262;SDS011;17892;52.080;9.006;2024-02-21T10:18:58;6.55;;;2.30;;
31262;SDS011;17892;52.080;9.006;2024-02-21T10:21:24;5.68;;;2.58;;
31262;SDS011;17892;52.080;9.006;2024-02-21T10:23:50;5.75;;;2.60;;
31262;SDS011;17892;52.080;9.006;2024-02-21T10:26:17;4.93;;;2.63;;
31262;SDS011;17892;52.080;9.006;2024-02-21T10:28:44;3.75;;;2.00;;
31262;SDS011;17892;52.080;9.006;2024-02-21T10:31:20;5.97;;;2.60;;
31262;SDS011;17892;52.080;9.006;2024-02-21T10:33:55;5.07;;;2.10;;
31262;SDS011;17892;52.080;9.006;2024-02-21T10:36:28;3.65;;;1.85;;
31262;SDS011;17892;52.080;9.006;2024-02-21T10:38:54;4.53;;;2.10;;
31262;SDS011;17892;52.080;9.006;2024-02-21T10:41:20;3.95;;;1.67;;
31262;SDS011;17892;52.080;9.006;2024-02-21T10:43:50;5.25;;;2.17;;
31262;SDS011;17892;52.080;9.006;2024-02-21T10:46:20;4.10;;;2.03;;
31262;SDS011;17892;52.080;9.006;2024-02-21T10:48:47;6.28;;;2.33;;
31262;SDS011;17892;52.080;9.006;2024-02-21T10:51:23;4.97;;;2.28;;
31262;SDS011;17892;52.080;9.006;2024-02-21T10:57:02;4.60;;;2.25;;
31262;SDS011;17892;52.080;9.006;2024-02-21T10:59:30;5.97;;;2.83;;
31262;SDS011;17892;52.080;9.006;2024-02-21T11:01:57;5.03;;;2.65;;
31262;SDS011;17892;52.080;9.006;2024-02-21T11:04:23;6.03;;;3.00;;
31262;SDS011;17892;52.080;9.006;2024-02-21T11:06:50;6.25;;;3.17;;
31262;SDS011;17892;52.080;9.006;2024-02-21T11:09:16;5.00;;;2.75;;
31262;SDS011;17892;52.080;9.006;2024-02-21T11:11:43;6.47;;;2.92;;
31262;SDS011;17892;52.080;9.006;2024-02-21T11:14:21;5.65;;;3.25;;
31262;SDS011;17892;52.080;9.006;2024-02-21T11:16:47;6.38;;;2.97;;
31262;SDS011;17892;52.080;9.006;2024-02-21T11:19:20;5.85;;;2.90;;
31262;SDS011;17892;52.080;9.006;2024-02-21T11:21:50;6.93;;;3.33;;
31262;SDS011;17892;52.080;9.006;2024-02-21T11:24:33;8.18;;;3.53;;
31262;SDS011;17892;52.080;9.006;2024-02-21T11:27:09;9.45;;;4.47;;
31262;SDS011;17892;52.080;9.006;2024-02-21T11:32:10;9.00;;;4.50;;
31262;SDS011;17892;52.080;9.006;2024-02-21T11:34:40;7.65;;;4.20;;
31262;SDS011;17892;52.080;9.006;2024-02-21T11:37:12;9.80;;;4.03;;
31262;SDS011;17892;52.080;9.006;2024-02-21T11:39:41;9.98;;;4.15;;
31262;SDS011;17892;52.080;9.006;2024-02-21T11:42:07;9.85;;;4.45;;
31262;SDS011;17892;52.080;9.006;2024-02-21T11:44:34;8.70;;;4.25;;
31262;SDS011;17892;52.080;9.006;2024-02-21T11:47:04;8.65;;;4.20;;
31262;SDS011;17892;52.080;9.006;2024-02-21T11:49:36;6.82;;;4.18;;
31262;SDS011;17892;52.080;9.006;2024-02-21T11:52:10;8.43;;;4.00;;
31262;SDS011;17892;52.080;9.006;2024-02-21T11:54:37;7.35;;;3.97;;
31262;SDS011;17892;52.080;9.006;2024-02-21T11:57:02;9.55;;;4.10;;
31262;SDS011;17892;52.080;9.006;2024-02-21T11:59:32;7.63;;;4.38;;
31262;SDS011;17892;52.080;9.006;2024-02-21T12:01:59;7.15;;;3.72;;
31262;SDS011;17892;52.080;9.006;2024-02-21T12:04:28;9.00;;;3.97;;
31262;SDS011;17892;52.080;9.006;2024-02-21T12:06:56;7.28;;;3.60;;
31262;SDS011;17892;52.080;9.006;2024-02-21T12:09:23;8.02;;;4.43;;
31262;SDS011;17892;52.080;9.006;2024-02-21T12:12:00;8.35;;;4.45;;
31262;SDS011;17892;52.080;9.006;2024-02-21T12:14:28;8.82;;;3.47;;
31262;SDS011;17892;52.080;9.006;2024-02-21T12:16:58;4.80;;;2.67;;
31262;SDS011;17892;52.080;9.006;2024-02-21T12:19:25;7.97;;;3.50;;
31262;SDS011;17892;52.080;9.006;2024-02-21T12:21:51;5.10;;;2.72;;
31262;SDS011;17892;52.080;9.006;2024-02-21T12:26:53;4.63;;;2.42;;
31262;SDS011;17892;52.080;9.006;2024-02-21T12:29:21;5.18;;;2.58;;
31262;SDS011;17892;52.080;9.006;2024-02-21T12:31:50;5.05;;;2.38;;
31262;SDS011;17892;52.080;9.006;2024-02-21T12:34:16;7.13;;;2.60;;
31262;SDS011;17892;52.080;9.006;2024-02-21T12:36:43;6.45;;;2.42;;
31262;SDS011;17892;52.080;9.006;2024-02-21T12:39:12;5.63;;;2.10;;
31262;SDS011;17892;52.080;9.006;2024-02-21T12:41:38;6.25;;;2.15;;
31262;SDS011;17892;52.080;9.006;2024-02-21T12:44:05;4.88;;;2.00;;
31262;SDS011;17892;52.080;9.006;2024-02-21T12:46:34;4.22;;;2.05;;
31262;SDS011;17892;52.080;9.006;2024-02-21T12:49:00;4.65;;;1.80;;
31262;SDS011;17892;52.080;9.006;2024-02-21T12:51:27;5.05;;;1.70;;
31262;SDS011;17892;52.080;9.006;2024-02-21T12:53:52;4.35;;;1.67;;
31262;SDS011;17892;52.080;9.006;2024-02-21T12:56:18;4.75;;;1.67;;
31262;SDS011;17892;52.080;9.006;2024-02-21T12:58:43;6.18;;;1.90;;
31262;SDS011;17892;52.080;9.006;2024-02-21T13:01:09;6.05;;;1.88;;
31262;SDS011;17892;52.080;9.006;2024-02-21T13:03:35;4.13;;;2.10;;
31262;SDS011;17892;52.080;9.006;2024-02-21T13:06:01;3.65;;;1.48;;
31262;SDS011;17892;52.080;9.006;2024-02-21T13:08:27;4.15;;;1.35;;
31262;SDS011;17892;52.080;9.006;2024-02-21T13:10:52;5.20;;;2.00;;
31262;SDS011;17892;52.080;9.006;2024-02-21T13:13:18;3.55;;;1.20;;
31262;SDS011;17892;52.080;9.006;2024-02-21T13:15:44;4.55;;;1.80;;
31262;SDS011;17892;52.080;9.006;2024-02-21T13:18:10;4.47;;;1.85;;
31262;SDS011;17892;52.080;9.006;2024-02-21T13:20:35;5.03;;;2.47;;
31262;SDS011;17892;52.080;9.006;2024-02-21T13:23:01;5.18;;;1.88;;
31262;SDS011;17892;52.080;9.006;2024-02-21T13:25:28;5.55;;;1.83;;
31262;SDS011;17892;52.080;9.006;2024-02-21T13:27:54;4.45;;;1.55;;
31262;SDS011;17892;52.080;9.006;2024-02-21T13:30:20;4.55;;;1.73;;
31262;SDS011;17892;52.080;9.006;2024-02-21T13:32:47;4.15;;;1.65;;
31262;SDS011;17892;52.080;9.006;2024-02-21T13:35:12;7.25;;;2.30;;
31262;SDS011;17892;52.080;9.006;2024-02-21T13:37:39;4.93;;;1.63;;
31262;SDS011;17892;52.080;9.006;2024-02-21T13:40:05;5.63;;;2.00;;
31262;SDS011;17892;52.080;9.006;2024-02-21T13:42:33;5.60;;;2.03;;
31262;SDS011;17892;52.080;9.006;2024-02-21T13:45:00;4.82;;;2.20;;
31262;SDS011;17892;52.080;9.006;2024-02-21T13:47:26;5.57;;;2.08;;
31262;SDS011;17892;52.080;9.006;2024-02-21T13:49:52;5.72;;;1.92;;
31262;SDS011;17892;52.080;9.006;2024-02-21T13:52:18;6.00;;;1.98;;
31262;SDS011;17892;52.080;9.006;2024-02-21T13:54:46;5.55;;;1.80;;
31262;SDS011;17892;52.080;9.006;2024-02-21T13:57:12;4.05;;;1.50;;
31262;SDS011;17892;52.080;9.006;2024-02-21T13:59:39;4.75;;;1.33;;
31262;SDS011;17892;52.080;9.006;2024-02-21T14:02:05;5.38;;;1.70;;
31262;SDS011;17892;52.080;9.006;2024-02-21T14:04:34;4.72;;;1.70;;
31262;SDS011;17892;52.080;9.006;2024-02-21T14:07:00;3.55;;;1.38;;
31262;SDS011;17892;52.080;9.006;2024-02-21T14:09:26;5.78;;;1.70;;
31262;SDS011;17892;52.080;9.006;2024-02-21T14:11:54;4.30;;;1.55;;
31262;SDS011;17892;52.080;9.006;2024-02-21T14:14:20;4.13;;;1.67;;
31262;SDS011;17892;52.080;9.006;2024-02-21T14:16:46;4.55;;;1.75;;
31262;SDS011;17892;52.080;9.006;2024-02-21T14:19:15;4.72;;;1.65;;
31262;SDS011;17892;52.080;9.006;2024-02-21T14:21:40;3.67;;;1.20;;
31262;SDS011;17892;52.080;9.006;2024-02-21T14:24:06;4.53;;;1.35;;
31262;SDS011;17892;52.080;9.006;2024-02-21T14:26:32;4.25;;;1.33;;
31262;SDS011;17892;52.080;9.006;2024-02-21T14:28:58;4.35;;;1.38;;
31262;SDS011;17892;52.080;9.006;2024-02-21T14:31:24;3.75;;;1.45;;
31262;SDS011;17892;52.080;9.006;2024-02-21T14:33:53;4.15;;;1.58;;
31262;SDS011;17892;52.080;9.006;2024-02-21T14:36:18;4.00;;;1.30;;
31262;SDS011;17892;52.080;9.006;2024-02-21T14:38:44;4.28;;;1.48;;
31262;SDS011;17892;52.080;9.006;2024-02-21T14:41:10;3.53;;;1.50;;
31262;SDS011;17892;52.080;9.006;2024-02-21T14:43:38;3.30;;;1.40;;
31262;SDS011;17892;52.080;9.006;2024-02-21T14:46:04;4.47;;;1.50;;